Time;durP1;ratioP1;P1;durP2;ratioP2;P2;SDS_P1;SDS_P2;PMS_P1;PMS_P2;Temp;Humidity;BMP_temperature;BMP_pressure;BME280_temperature;BME280_humidity;BME280_pressure;Samples;Min_cycle;Max_cycle;Signal;HPM_P1;HPM_P2
2023/07/09 00:01:41;;;;;;;6.40;5.70;;;;;;;;;;5071270;28;20196;-51
2023/07/09 00:04:09;;;;;;;7.30;5.70;;;;;;;;;;5071199;28;20578;-51
2023/07/09 00:06:35;;;;;;;6.77;5.73;;;;;;;;;;5071662;28;20260;-52
2023/07/09 00:09:02;;;;;;;5.87;5.37;;;;;;;;;;5071051;28;20192;-53
2023/07/09 00:11:29;;;;;;;6.03;5.17;;;;;;;;;;5071384;28;20204;-54
2023/07/09 00:13:55;;;;;;;8.03;5.67;;;;;;;;;;5060488;28;20227;-53
2023/07/09 00:16:24;;;;;;;6.57;5.50;;;;;;;;;;5070078;28;20269;-52
2023/07/09 00:18:50;;;;;;;7.27;5.70;;;;;;;;;;5071133;28;20200;-53
2023/07/09 00:21:16;;;;;;;6.83;5.93;;;;;;;;;;5071257;28;20196;-51
2023/07/09 00:23:42;;;;;;;7.00;5.40;;;;;;;;;;5070979;28;20560;-53
2023/07/09 00:26:11;;;;;;;5.63;5.13;;;;;;;;;;5071030;28;20194;-50
2023/07/09 00:28:37;;;;;;;5.83;5.30;;;;;;;;;;5071148;28;20207;-51
2023/07/09 00:31:08;;;;;;;5.53;4.60;;;;;;;;;;5071053;28;20701;-54
2023/07/09 00:33:34;;;;;;;7.27;4.63;;;;;;;;;;5070963;28;20223;-54
2023/07/09 00:36:00;;;;;;;5.40;4.93;;;;;;;;;;5070890;28;20194;-53
2023/07/09 00:38:27;;;;;;;6.17;5.00;;;;;;;;;;5070816;28;20200;-53
2023/07/09 00:41:01;;;;;;;5.13;4.57;;;;;;;;;;5070967;28;20203;-54
2023/07/09 00:43:30;;;;;;;5.83;5.30;;;;;;;;;;5070757;28;20292;-54
2023/07/09 00:46:15;;;;;;;5.87;4.93;;;;;;;;;;5071070;28;20195;-54
2023/07/09 00:48:41;;;;;;;5.37;4.87;;;;;;;;;;5070780;28;20191;-54
2023/07/09 00:51:11;;;;;;;6.07;4.90;;;;;;;;;;5070947;28;20203;-53
2023/07/09 00:53:45;;;;;;;6.30;4.90;;;;;;;;;;5070831;28;20590;-53
2023/07/09 00:56:14;;;;;;;7.53;5.33;;;;;;;;;;5070659;28;20205;-54
2023/07/09 00:58:43;;;;;;;5.80;5.00;;;;;;;;;;5070748;28;20203;-55
2023/07/09 01:01:11;;;;;;;5.03;4.50;;;;;;;;;;5070542;28;20265;-54
2023/07/09 01:03:43;;;;;;;5.23;4.73;;;;;;;;;;5070597;28;20461;-54
2023/07/09 01:06:10;;;;;;;5.43;4.93;;;;;;;;;;5070685;28;20311;-54
2023/07/09 01:08:36;;;;;;;5.57;4.73;;;;;;;;;;5070543;28;20191;-55
2023/07/09 01:11:03;;;;;;;6.03;5.27;;;;;;;;;;5070460;28;20839;-55
2023/07/09 01:13:32;;;;;;;4.97;4.40;;;;;;;;;;5070455;28;20227;-55
2023/07/09 01:15:59;;;;;;;5.40;4.90;;;;;;;;;;5070474;28;20211;-55
2023/07/09 01:18:25;;;;;;;5.80;5.30;;;;;;;;;;5070367;28;20690;-54
2023/07/09 01:20:52;;;;;;;5.77;4.60;;;;;;;;;;5072923;28;20218;-54
2023/07/09 01:23:19;;;;;;;5.63;5.13;;;;;;;;;;5074087;28;20207;-54
2023/07/09 01:25:52;;;;;;;5.03;4.53;;;;;;;;;;5074197;28;20198;-54
2023/07/09 01:28:18;;;;;;;5.40;4.80;;;;;;;;;;5074087;28;20199;-54
2023/07/09 01:30:45;;;;;;;5.83;4.93;;;;;;;;;;5074131;28;20256;-53
2023/07/09 01:33:11;;;;;;;5.50;5.00;;;;;;;;;;5073906;28;20200;-55
2023/07/09 01:35:39;;;;;;;5.43;4.93;;;;;;;;;;5073934;28;20218;-53
2023/07/09 01:38:06;;;;;;;5.10;4.70;;;;;;;;;;5073977;28;20731;-53
2023/07/09 01:40:33;;;;;;;5.83;5.20;;;;;;;;;;5074063;28;20234;-53
2023/07/09 01:43:00;;;;;;;5.83;5.23;;;;;;;;;;5073653;28;20668;-55
2023/07/09 01:45:27;;;;;;;5.70;4.70;;;;;;;;;;5074029;28;20200;-53
2023/07/09 01:47:53;;;;;;;7.80;5.17;;;;;;;;;;5073792;28;20671;-55
2023/07/09 01:50:20;;;;;;;5.50;5.00;;;;;;;;;;5073691;28;20191;-53
2023/07/09 01:52:49;;;;;;;5.20;4.70;;;;;;;;;;5073654;28;20204;-52
2023/07/09 01:55:16;;;;;;;4.80;4.40;;;;;;;;;;5073406;28;20251;-53
2023/07/09 01:57:45;;;;;;;5.73;5.13;;;;;;;;;;5073608;28;20282;-54
2023/07/09 02:00:13;;;;;;;5.20;4.70;;;;;;;;;;5073510;28;20214;-53
2023/07/09 02:02:42;;;;;;;5.10;4.67;;;;;;;;;;5073525;28;20266;-55
2023/07/09 02:05:09;;;;;;;5.97;4.97;;;;;;;;;;5073187;28;20217;-54
2023/07/09 02:07:35;;;;;;;5.23;4.83;;;;;;;;;;5073382;28;20204;-53
2023/07/09 02:10:02;;;;;;;6.83;4.90;;;;;;;;;;5073404;28;20282;-54
2023/07/09 02:12:28;;;;;;;5.63;4.77;;;;;;;;;;5073395;28;20586;-54
2023/07/09 02:14:55;;;;;;;5.50;5.00;;;;;;;;;;5073332;28;20258;-54
2023/07/09 02:17:21;;;;;;;5.20;4.80;;;;;;;;;;5073103;28;20201;-54
2023/07/09 02:19:47;;;;;;;5.27;4.77;;;;;;;;;;5073310;28;20569;-54
2023/07/09 02:22:13;;;;;;;5.80;5.10;;;;;;;;;;5073328;28;20191;-54
2023/07/09 02:24:39;;;;;;;5.17;4.77;;;;;;;;;;5073221;28;20192;-53
2023/07/09 02:27:06;;;;;;;5.30;4.80;;;;;;;;;;5073081;28;20274;-53
2023/07/09 02:29:32;;;;;;;5.60;5.10;;;;;;;;;;5072990;28;20206;-54
2023/07/09 02:32:00;;;;;;;4.83;4.43;;;;;;;;;;5072825;28;20192;-54
2023/07/09 02:34:27;;;;;;;5.73;4.63;;;;;;;;;;5072735;28;20734;-54
2023/07/09 02:36:53;;;;;;;5.00;4.60;;;;;;;;;;5073431;28;20201;-54
2023/07/09 02:39:20;;;;;;;4.73;4.33;;;;;;;;;;5072861;28;20196;-55
2023/07/09 02:41:46;;;;;;;5.40;4.77;;;;;;;;;;5072776;28;20219;-54
2023/07/09 02:44:12;;;;;;;5.03;4.53;;;;;;;;;;5072706;28;20203;-54
2023/07/09 02:46:39;;;;;;;5.40;4.83;;;;;;;;;;5072783;28;20279;-54
2023/07/09 02:49:06;;;;;;;6.07;4.87;;;;;;;;;;5072610;28;20654;-53
2023/07/09 02:51:33;;;;;;;5.20;4.47;;;;;;;;;;5072479;28;20299;-53
2023/07/09 02:54:00;;;;;;;5.07;4.60;;;;;;;;;;5072466;28;20216;-53
2023/07/09 02:56:26;;;;;;;5.40;4.90;;;;;;;;;;5072480;28;20217;-53
2023/07/09 02:58:53;;;;;;;5.10;4.60;;;;;;;;;;5072636;28;20199;-53
2023/07/09 03:01:24;;;;;;;9.03;5.10;;;;;;;;;;5072421;28;20199;-52
2023/07/09 03:03:50;;;;;;;5.57;5.07;;;;;;;;;;5072519;28;20234;-52
2023/07/09 03:06:18;;;;;;;5.20;4.70;;;;;;;;;;5072250;28;20243;-53
2023/07/09 03:08:44;;;;;;;4.73;4.30;;;;;;;;;;5072223;28;20577;-53
2023/07/09 03:11:10;;;;;;;4.93;4.50;;;;;;;;;;5071993;28;20203;-53
2023/07/09 03:13:36;;;;;;;5.13;4.60;;;;;;;;;;5071798;28;20195;-53
2023/07/09 03:16:03;;;;;;;5.73;4.20;;;;;;;;;;5072049;28;20192;-53
2023/07/09 03:18:29;;;;;;;5.50;4.80;;;;;;;;;;5071955;28;20704;-53
2023/07/09 03:20:55;;;;;;;5.57;5.07;;;;;;;;;;5071791;28;20249;-53
2023/07/09 03:23:23;;;;;;;6.07;4.60;;;;;;;;;;5071731;28;20677;-55
2023/07/09 03:25:49;;;;;;;4.60;4.20;;;;;;;;;;5072051;28;20203;-53
2023/07/09 03:28:15;;;;;;;4.80;4.40;;;;;;;;;;5071888;28;20305;-54
2023/07/09 03:30:41;;;;;;;4.97;4.53;;;;;;;;;;5071888;28;20257;-53
2023/07/09 03:33:07;;;;;;;4.47;4.07;;;;;;;;;;5071730;28;20290;-53
2023/07/09 03:35:34;;;;;;;4.93;4.53;;;;;;;;;;5071647;28;20318;-53
2023/07/09 03:38:00;;;;;;;5.50;4.50;;;;;;;;;;5071595;28;20249;-53
2023/07/09 03:40:28;;;;;;;5.20;4.70;;;;;;;;;;5071489;28;20199;-55
2023/07/09 03:42:53;;;;;;;5.10;4.70;;;;;;;;;;5070907;28;20239;-53
2023/07/09 03:45:20;;;;;;;6.80;4.60;;;;;;;;;;5071554;28;20199;-54
2023/07/09 03:47:46;;;;;;;5.53;4.60;;;;;;;;;;5071553;28;20230;-53
2023/07/09 03:50:12;;;;;;;5.30;4.30;;;;;;;;;;5071293;28;20749;-53
2023/07/09 03:52:38;;;;;;;5.70;4.37;;;;;;;;;;5071518;28;20475;-53
2023/07/09 03:55:04;;;;;;;5.37;4.87;;;;;;;;;;5071437;28;20255;-53
2023/07/09 03:57:31;;;;;;;5.10;4.60;;;;;;;;;;5071273;28;20673;-53
2023/07/09 03:59:57;;;;;;;4.87;4.40;;;;;;;;;;5071276;28;20208;-53
2023/07/09 04:02:24;;;;;;;6.10;4.50;;;;;;;;;;5071190;28;20731;-53
2023/07/09 04:04:50;;;;;;;4.70;4.30;;;;;;;;;;5071209;28;20219;-55
2023/07/09 04:07:16;;;;;;;6.63;5.10;;;;;;;;;;5070978;28;20246;-55
2023/07/09 04:09:42;;;;;;;5.10;4.60;;;;;;;;;;5071418;28;20199;-55
2023/07/09 04:12:09;;;;;;;9.03;4.37;;;;;;;;;;5071233;28;20245;-54
2023/07/09 04:14:36;;;;;;;5.50;4.37;;;;;;;;;;5071032;28;20231;-54
2023/07/09 04:17:02;;;;;;;6.80;4.93;;;;;;;;;;5071223;28;20260;-54
2023/07/09 04:19:28;;;;;;;5.10;4.20;;;;;;;;;;5071029;28;20199;-54
2023/07/09 04:21:54;;;;;;;5.80;4.87;;;;;;;;;;5070824;28;20760;-54
2023/07/09 04:24:21;;;;;;;4.53;4.13;;;;;;;;;;5070858;28;20206;-54
2023/07/09 04:26:47;;;;;;;5.00;4.60;;;;;;;;;;5071020;28;20598;-54
2023/07/09 04:29:13;;;;;;;5.23;4.80;;;;;;;;;;5070874;28;20617;-54
2023/07/09 04:31:41;;;;;;;5.67;5.00;;;;;;;;;;5070828;28;20689;-54
2023/07/09 04:34:08;;;;;;;5.10;4.60;;;;;;;;;;5070785;28;20233;-54
2023/07/09 04:36:35;;;;;;;5.23;4.23;;;;;;;;;;5070810;28;20233;-54
2023/07/09 04:39:01;;;;;;;5.07;4.57;;;;;;;;;;5070913;28;20283;-54
2023/07/09 04:41:27;;;;;;;4.67;4.23;;;;;;;;;;5070738;28;20222;-54
2023/07/09 04:43:53;;;;;;;5.10;4.60;;;;;;;;;;5070690;28;20276;-54
2023/07/09 04:46:19;;;;;;;5.37;4.87;;;;;;;;;;5070775;28;20200;-54
2023/07/09 04:48:46;;;;;;;4.63;4.23;;;;;;;;;;5070816;28;20666;-54
2023/07/09 04:51:12;;;;;;;5.53;4.40;;;;;;;;;;5070733;28;20223;-54
2023/07/09 04:53:38;;;;;;;4.40;4.00;;;;;;;;;;5070524;28;20197;-55
2023/07/09 04:56:04;;;;;;;5.07;4.67;;;;;;;;;;5073765;28;20203;-54
2023/07/09 04:58:30;;;;;;;4.90;4.53;;;;;;;;;;5074702;28;20604;-53
2023/07/09 05:00:57;;;;;;;7.77;4.50;;;;;;;;;;5074769;28;20196;-54
2023/07/09 05:03:23;;;;;;;5.20;4.50;;;;;;;;;;5074602;28;20195;-53
2023/07/09 05:05:50;;;;;;;5.00;4.47;;;;;;;;;;5074554;28;20302;-53
2023/07/09 05:08:17;;;;;;;4.60;4.20;;;;;;;;;;5074501;28;20214;-54
2023/07/09 05:10:43;;;;;;;5.80;4.30;;;;;;;;;;5074534;28;20214;-54
2023/07/09 05:13:09;;;;;;;6.03;4.50;;;;;;;;;;5074329;28;20568;-54
2023/07/09 05:15:35;;;;;;;4.90;4.30;;;;;;;;;;5074221;28;20626;-54
2023/07/09 05:18:01;;;;;;;6.03;4.27;;;;;;;;;;5074485;28;20234;-53
2023/07/09 05:20:27;;;;;;;7.33;4.70;;;;;;;;;;5074435;28;20199;-54
2023/07/09 05:22:55;;;;;;;4.40;4.10;;;;;;;;;;5074277;28;20201;-54
2023/07/09 05:25:21;;;;;;;5.00;4.50;;;;;;;;;;5074178;28;20547;-54
2023/07/09 05:27:47;;;;;;;5.17;4.40;;;;;;;;;;5074267;28;20275;-54
2023/07/09 05:30:13;;;;;;;4.60;4.20;;;;;;;;;;5073956;28;20204;-54
2023/07/09 05:32:39;;;;;;;4.83;4.27;;;;;;;;;;5074148;28;20226;-53
2023/07/09 05:35:05;;;;;;;4.70;4.20;;;;;;;;;;5073822;28;20231;-54
2023/07/09 05:37:31;;;;;;;8.43;4.83;;;;;;;;;;5073973;28;20239;-54
2023/07/09 05:39:59;;;;;;;6.43;4.53;;;;;;;;;;5074011;28;20274;-53
2023/07/09 05:42:25;;;;;;;5.47;4.13;;;;;;;;;;5073749;28;20238;-53
2023/07/09 05:44:52;;;;;;;4.63;4.23;;;;;;;;;;5073971;28;20191;-54
2023/07/09 05:47:18;;;;;;;4.80;4.33;;;;;;;;;;5073795;28;20266;-54
2023/07/09 05:49:45;;;;;;;5.17;4.43;;;;;;;;;;5073792;28;20797;-53
2023/07/09 05:52:11;;;;;;;6.33;4.53;;;;;;;;;;5073682;28;20224;-54
2023/07/09 05:54:37;;;;;;;5.70;4.60;;;;;;;;;;5073794;28;20692;-54
2023/07/09 05:57:05;;;;;;;4.33;3.93;;;;;;;;;;5073963;28;20197;-54
2023/07/09 05:59:31;;;;;;;5.67;4.70;;;;;;;;;;5073601;28;20262;-53
2023/07/09 06:01:57;;;;;;;5.33;4.63;;;;;;;;;;5073591;28;20203;-54
2023/07/09 06:04:24;;;;;;;5.30;4.40;;;;;;;;;;5073321;28;20198;-54
2023/07/09 06:06:50;;;;;;;5.57;4.50;;;;;;;;;;5072964;28;20226;-54
2023/07/09 06:09:16;;;;;;;4.93;4.07;;;;;;;;;;5073413;28;20570;-54
2023/07/09 06:11:42;;;;;;;5.03;4.53;;;;;;;;;;5073384;28;20249;-53
2023/07/09 06:14:09;;;;;;;4.80;4.40;;;;;;;;;;5073262;28;20251;-54
2023/07/09 06:16:35;;;;;;;7.10;4.77;;;;;;;;;;5073215;28;20258;-54
2023/07/09 06:19:01;;;;;;;6.13;4.33;;;;;;;;;;5073222;28;20193;-54
2023/07/09 06:21:27;;;;;;;4.57;4.17;;;;;;;;;;5073004;28;20251;-54
2023/07/09 06:23:53;;;;;;;5.20;4.10;;;;;;;;;;5072913;28;20216;-54
2023/07/09 06:26:19;;;;;;;4.77;4.27;;;;;;;;;;5073091;28;20724;-54
2023/07/09 06:28:45;;;;;;;4.90;4.40;;;;;;;;;;5073143;28;20200;-54
2023/07/09 06:31:13;;;;;;;4.53;4.13;;;;;;;;;;5068899;28;20292;-54
2023/07/09 06:33:39;;;;;;;6.10;4.70;;;;;;;;;;5055582;28;20289;-54
2023/07/09 06:36:05;;;;;;;5.00;4.50;;;;;;;;;;5052767;28;20304;-55
2023/07/09 06:38:31;;;;;;;4.60;4.20;;;;;;;;;;5052934;28;20274;-54
2023/07/09 06:40:58;;;;;;;5.37;4.20;;;;;;;;;;5052885;28;20201;-54
2023/07/09 06:43:24;;;;;;;5.70;4.13;;;;;;;;;;5052575;28;20237;-54
2023/07/09 06:45:51;;;;;;;4.90;4.40;;;;;;;;;;5055521;28;20558;-54
2023/07/09 06:48:19;;;;;;;5.80;5.07;;;;;;;;;;5060431;28;20228;-54
2023/07/09 06:50:45;;;;;;;5.37;4.07;;;;;;;;;;5052955;28;20207;-54
2023/07/09 06:53:11;;;;;;;4.70;4.30;;;;;;;;;;5052442;28;20208;-54
2023/07/09 06:55:37;;;;;;;4.57;4.17;;;;;;;;;;5052572;28;20223;-54
2023/07/09 06:58:03;;;;;;;5.03;4.30;;;;;;;;;;5052518;28;20670;-54
2023/07/09 07:00:29;;;;;;;4.77;4.37;;;;;;;;;;5052410;28;20287;-54
2023/07/09 07:02:55;;;;;;;6.20;3.80;;;;;;;;;;5052508;28;20203;-54
2023/07/09 07:05:23;;;;;;;4.87;4.20;;;;;;;;;;5052160;28;20227;-54
2023/07/09 07:07:48;;;;;;;4.47;4.07;;;;;;;;;;5052215;28;20675;-54
2023/07/09 07:10:15;;;;;;;5.70;4.27;;;;;;;;;;5052235;28;20335;-55
2023/07/09 07:12:42;;;;;;;6.20;4.30;;;;;;;;;;5052306;28;20235;-54
2023/07/09 07:15:08;;;;;;;5.13;4.60;;;;;;;;;;5052145;28;20675;-54
2023/07/09 07:17:34;;;;;;;6.97;4.60;;;;;;;;;;5051143;28;20678;-54
2023/07/09 07:20:00;;;;;;;5.00;4.50;;;;;;;;;;5052162;28;20204;-54
2023/07/09 07:22:28;;;;;;;4.90;4.40;;;;;;;;;;5051783;28;20254;-53
2023/07/09 07:24:54;;;;;;;4.63;4.17;;;;;;;;;;5051929;28;20758;-52
2023/07/09 07:27:20;;;;;;;5.80;4.27;;;;;;;;;;5051788;28;20203;-54
2023/07/09 07:29:46;;;;;;;4.70;4.30;;;;;;;;;;5051895;28;20201;-51
2023/07/09 07:32:12;;;;;;;8.03;4.83;;;;;;;;;;5051798;28;20193;-52
2023/07/09 07:34:38;;;;;;;5.67;4.80;;;;;;;;;;5051910;28;20587;-51
2023/07/09 07:37:04;;;;;;;6.10;4.27;;;;;;;;;;5051829;28;20208;-52
2023/07/09 07:39:31;;;;;;;5.00;4.30;;;;;;;;;;5051539;28;20192;-51
2023/07/09 07:41:57;;;;;;;5.90;5.03;;;;;;;;;;5051480;28;20200;-52
2023/07/09 07:44:23;;;;;;;5.40;4.57;;;;;;;;;;5051576;28;20199;-51
2023/07/09 07:46:49;;;;;;;6.23;4.37;;;;;;;;;;5051606;28;20274;-51
2023/07/09 07:49:15;;;;;;;6.67;4.53;;;;;;;;;;5051548;28;20626;-52
2023/07/09 07:51:42;;;;;;;6.07;4.80;;;;;;;;;;5051585;28;20209;-52
2023/07/09 07:54:11;;;;;;;5.97;4.20;;;;;;;;;;5051313;28;20229;-52
2023/07/09 07:56:38;;;;;;;5.03;4.37;;;;;;;;;;5051292;28;20723;-52
2023/07/09 07:59:04;;;;;;;6.80;4.40;;;;;;;;;;5051446;28;20211;-55
2023/07/09 08:01:30;;;;;;;5.10;4.50;;;;;;;;;;5056972;28;20251;-51
2023/07/09 08:04:02;;;;;;;4.40;3.90;;;;;;;;;;5071305;28;20285;-53
2023/07/09 08:06:31;;;;;;;5.20;4.70;;;;;;;;;;5070948;28;20279;-51
2023/07/09 08:08:57;;;;;;;5.43;4.10;;;;;;;;;;5071268;28;20206;-53
2023/07/09 08:11:23;;;;;;;5.73;4.50;;;;;;;;;;5071056;28;20240;-53
2023/07/09 08:13:51;;;;;;;4.50;4.10;;;;;;;;;;5071219;28;20206;-53
2023/07/09 08:16:17;;;;;;;4.40;4.00;;;;;;;;;;5071046;28;20755;-52
2023/07/09 08:18:43;;;;;;;5.30;4.40;;;;;;;;;;5071092;28;20561;-53
2023/07/09 08:21:09;;;;;;;4.33;3.93;;;;;;;;;;5066887;28;20580;-53
2023/07/09 08:23:36;;;;;;;4.73;4.33;;;;;;;;;;5071085;28;20202;-50
2023/07/09 08:26:02;;;;;;;5.07;4.53;;;;;;;;;;5070984;28;20198;-52
2023/07/09 08:28:28;;;;;;;4.77;4.37;;;;;;;;;;5070647;28;20221;-51
2023/07/09 08:30:56;;;;;;;4.97;4.47;;;;;;;;;;5071023;28;20203;-51
2023/07/09 08:33:23;;;;;;;6.20;4.23;;;;;;;;;;5070762;28;20674;-49
2023/07/09 08:35:49;;;;;;;4.37;3.97;;;;;;;;;;5070764;28;20225;-51
2023/07/09 08:38:15;;;;;;;4.77;4.13;;;;;;;;;;5062680;28;20198;-51
2023/07/09 08:40:42;;;;;;;4.57;4.17;;;;;;;;;;5051145;28;20221;-51
2023/07/09 08:43:14;;;;;;;6.63;4.20;;;;;;;;;;5050957;28;20238;-51
2023/07/09 08:45:46;;;;;;;5.03;4.27;;;;;;;;;;5053290;28;20224;-52
2023/07/09 08:48:16;;;;;;;5.07;4.57;;;;;;;;;;5070997;28;20681;-52
2023/07/09 08:50:43;;;;;;;4.97;4.27;;;;;;;;;;5071105;28;20317;-52
2023/07/09 08:53:14;;;;;;;4.60;4.20;;;;;;;;;;5070970;28;20226;-52
2023/07/09 08:55:40;;;;;;;5.63;4.40;;;;;;;;;;5070937;28;20234;-52
2023/07/09 08:58:11;;;;;;;4.93;4.50;;;;;;;;;;5071012;28;20206;-52
2023/07/09 09:00:41;;;;;;;5.77;4.57;;;;;;;;;;5070824;28;20658;-51
2023/07/09 09:03:10;;;;;;;6.77;4.33;;;;;;;;;;5054495;28;20251;-52
2023/07/09 09:05:40;;;;;;;6.33;4.50;;;;;;;;;;5050716;28;20217;-52
2023/07/09 09:08:13;;;;;;;4.70;4.23;;;;;;;;;;5050788;28;20210;-51
2023/07/09 09:10:43;;;;;;;5.47;4.17;;;;;;;;;;5050945;28;20203;-52
2023/07/09 09:13:10;;;;;;;4.37;3.97;;;;;;;;;;5050647;28;20687;-51
2023/07/09 09:15:37;;;;;;;4.50;4.10;;;;;;;;;;5050503;28;20231;-52
2023/07/09 09:18:14;;;;;;;6.43;4.70;;;;;;;;;;5050811;28;20192;-51
2023/07/09 09:20:42;;;;;;;6.20;4.63;;;;;;;;;;5050668;28;20210;-53
2023/07/09 09:23:13;;;;;;;4.77;4.27;;;;;;;;;;5050784;28;20227;-53
2023/07/09 09:25:41;;;;;;;5.17;4.57;;;;;;;;;;5050770;28;20200;-53
2023/07/09 09:28:08;;;;;;;4.97;4.40;;;;;;;;;;5050684;28;20306;-53
2023/07/09 09:30:34;;;;;;;6.70;4.53;;;;;;;;;;5050675;28;20203;-52
2023/07/09 09:33:00;;;;;;;4.77;4.37;;;;;;;;;;5050733;28;20542;-53
2023/07/09 09:35:28;;;;;;;4.60;4.20;;;;;;;;;;5050477;28;20236;-53
2023/07/09 09:37:56;;;;;;;4.73;4.30;;;;;;;;;;5050465;28;20197;-53
2023/07/09 09:40:23;;;;;;;5.53;4.50;;;;;;;;;;5049388;28;20206;-53
2023/07/09 09:42:49;;;;;;;5.47;4.60;;;;;;;;;;5054114;28;20237;-53
2023/07/09 09:45:17;;;;;;;4.43;4.03;;;;;;;;;;5054261;28;20664;-52
2023/07/09 09:47:43;;;;;;;4.80;4.40;;;;;;;;;;5054400;28;20206;-52
2023/07/09 09:50:10;;;;;;;5.63;3.83;;;;;;;;;;5054058;28;20656;-52
2023/07/09 09:52:37;;;;;;;4.67;4.07;;;;;;;;;;5054069;28;20201;-52
2023/07/09 09:55:18;;;;;;;5.07;4.57;;;;;;;;;;5054015;28;20284;-52
2023/07/09 09:57:49;;;;;;;5.07;4.40;;;;;;;;;;5054076;28;20202;-52
2023/07/09 10:00:16;;;;;;;5.97;4.13;;;;;;;;;;5053988;28;20677;-53
2023/07/09 10:02:42;;;;;;;4.97;4.30;;;;;;;;;;5053912;28;20199;-52
2023/07/09 10:05:11;;;;;;;4.63;4.20;;;;;;;;;;5053758;28;20210;-52
2023/07/09 10:07:39;;;;;;;5.73;4.93;;;;;;;;;;5053749;28;20309;-53
2023/07/09 10:10:10;;;;;;;14.07;5.50;;;;;;;;;;5053865;28;20203;-53
2023/07/09 10:12:40;;;;;;;7.97;4.60;;;;;;;;;;5053614;28;20210;-53
2023/07/09 10:15:13;;;;;;;6.93;4.50;;;;;;;;;;5053629;28;20228;-53
2023/07/09 10:17:42;;;;;;;5.33;4.30;;;;;;;;;;5053560;28;20653;-53
2023/07/09 10:20:12;;;;;;;5.93;4.63;;;;;;;;;;5053462;28;20206;-53
2023/07/09 10:22:41;;;;;;;6.17;4.37;;;;;;;;;;5053700;28;20194;-53
2023/07/09 10:25:13;;;;;;;5.30;4.80;;;;;;;;;;5053404;28;20840;-53
2023/07/09 10:27:44;;;;;;;5.17;4.57;;;;;;;;;;5053607;28;20202;-53
2023/07/09 10:30:19;;;;;;;5.27;4.77;;;;;;;;;;5053501;28;20274;-53
2023/07/09 10:32:51;;;;;;;5.60;4.50;;;;;;;;;;5053459;28;20196;-53
2023/07/09 10:35:23;;;;;;;5.60;4.60;;;;;;;;;;5053108;28;20221;-53
2023/07/09 10:37:56;;;;;;;7.00;4.87;;;;;;;;;;5053454;28;20204;-53
2023/07/09 10:40:25;;;;;;;5.70;4.20;;;;;;;;;;5053240;28;20913;-53
2023/07/09 10:42:54;;;;;;;4.87;4.37;;;;;;;;;;5053054;28;20235;-53
2023/07/09 10:45:22;;;;;;;4.57;4.17;;;;;;;;;;5053428;28;20196;-51
2023/07/09 10:47:50;;;;;;;5.57;4.37;;;;;;;;;;5053068;28;20547;-52
2023/07/09 10:50:19;;;;;;;5.47;4.40;;;;;;;;;;5052897;28;20223;-52
2023/07/09 10:52:46;;;;;;;5.10;4.60;;;;;;;;;;5052872;28;20196;-52
2023/07/09 10:55:16;;;;;;;5.30;4.80;;;;;;;;;;5052863;28;20644;-52
2023/07/09 10:57:47;;;;;;;6.10;4.63;;;;;;;;;;5052934;28;20207;-52
2023/07/09 11:00:16;;;;;;;4.57;4.17;;;;;;;;;;5052796;28;20200;-52
2023/07/09 11:02:43;;;;;;;8.73;4.33;;;;;;;;;;5052875;28;20228;-51
2023/07/09 11:05:09;;;;;;;7.83;4.50;;;;;;;;;;5052601;28;20217;-52
2023/07/09 11:07:40;;;;;;;7.07;4.80;;;;;;;;;;5052519;28;20770;-52
2023/07/09 11:10:08;;;;;;;5.40;4.53;;;;;;;;;;5052683;28;20213;-52
2023/07/09 11:12:36;;;;;;;5.43;4.47;;;;;;;;;;5052473;28;20203;-52
2023/07/09 11:15:06;;;;;;;6.60;4.77;;;;;;;;;;5052399;28;20691;-52
2023/07/09 11:17:34;;;;;;;5.17;4.20;;;;;;;;;;5052478;28;20208;-52
2023/07/09 11:20:01;;;;;;;6.70;4.10;;;;;;;;;;5052459;28;20344;-52
2023/07/09 11:22:28;;;;;;;6.90;4.80;;;;;;;;;;5052206;28;20202;-52
2023/07/09 11:25:05;;;;;;;5.43;4.93;;;;;;;;;;5052357;28;20909;-52
2023/07/09 11:27:31;;;;;;;5.57;4.47;;;;;;;;;;5067637;28;20205;-52
2023/07/09 11:29:59;;;;;;;5.00;4.50;;;;;;;;;;5072170;28;20187;-51
2023/07/09 11:32:27;;;;;;;4.83;4.33;;;;;;;;;;5072093;28;20298;-51
2023/07/09 11:34:53;;;;;;;4.97;4.40;;;;;;;;;;5072117;28;20279;-51
2023/07/09 11:37:20;;;;;;;5.23;4.50;;;;;;;;;;5071959;28;20201;-53
2023/07/09 11:39:47;;;;;;;7.07;4.87;;;;;;;;;;5071995;28;20660;-51
2023/07/09 11:42:24;;;;;;;6.13;4.90;;;;;;;;;;5071828;28;20251;-52
2023/07/09 11:44:50;;;;;;;6.37;4.33;;;;;;;;;;5072069;28;20194;-54
2023/07/09 11:47:19;;;;;;;7.93;4.65;;;;;;;;;;5071722;28;20199;-52
2023/07/09 11:49:50;;;;;;;5.87;4.57;;;;;;;;;;5071814;28;20189;-52
2023/07/09 11:52:20;;;;;;;5.13;4.63;;;;;;;;;;5071685;28;20214;-52
2023/07/09 11:54:46;;;;;;;7.63;4.97;;;;;;;;;;5071735;28;20220;-53
2023/07/09 11:57:15;;;;;;;6.00;4.83;;;;;;;;;;5071741;28;20196;-52
2023/07/09 11:59:42;;;;;;;5.97;4.50;;;;;;;;;;5071850;28;20208;-51
2023/07/09 12:02:14;;;;;;;5.43;4.60;;;;;;;;;;5071767;28;20232;-52
2023/07/09 12:04:41;;;;;;;5.53;5.00;;;;;;;;;;5067774;28;20480;-52
2023/07/09 12:07:13;;;;;;;5.30;4.70;;;;;;;;;;5071484;28;20658;-49
2023/07/09 12:09:42;;;;;;;7.03;4.43;;;;;;;;;;5071422;28;20199;-52
2023/07/09 12:12:17;;;;;;;6.17;4.93;;;;;;;;;;5071504;28;20836;-52
2023/07/09 12:14:43;;;;;;;5.13;4.13;;;;;;;;;;5071364;28;20272;-52
2023/07/09 12:17:09;;;;;;;6.00;4.60;;;;;;;;;;5071441;28;20199;-52
2023/07/09 12:19:35;;;;;;;5.67;4.30;;;;;;;;;;5071339;28;20211;-52
2023/07/09 12:22:01;;;;;;;5.03;4.47;;;;;;;;;;5071342;28;20229;-52
2023/07/09 12:24:33;;;;;;;4.80;4.40;;;;;;;;;;5071192;28;20206;-52
2023/07/09 12:27:00;;;;;;;5.83;4.63;;;;;;;;;;5071200;28;20652;-52
2023/07/09 12:29:26;;;;;;;5.73;4.47;;;;;;;;;;5071177;28;20276;-52
2023/07/09 12:31:52;;;;;;;5.47;4.60;;;;;;;;;;5071352;28;20197;-52
2023/07/09 12:34:18;;;;;;;5.50;5.00;;;;;;;;;;5071140;28;20188;-52
2023/07/09 12:36:46;;;;;;;7.10;4.50;;;;;;;;;;5071304;28;20540;-52
2023/07/09 12:39:13;;;;;;;4.43;4.03;;;;;;;;;;5071215;28;20209;-52
2023/07/09 12:41:41;;;;;;;5.37;4.77;;;;;;;;;;5071108;28;20191;-51
2023/07/09 12:44:14;;;;;;;4.80;4.40;;;;;;;;;;5071012;28;20314;-52
2023/07/09 12:46:40;;;;;;;5.37;4.10;;;;;;;;;;5071227;28;20279;-52
2023/07/09 12:49:06;;;;;;;4.73;4.23;;;;;;;;;;5071229;28;20202;-51
2023/07/09 12:51:32;;;;;;;4.80;4.07;;;;;;;;;;5070943;28;20199;-52
2023/07/09 12:54:02;;;;;;;7.90;4.33;;;;;;;;;;5071119;28;20279;-52
2023/07/09 12:56:28;;;;;;;6.63;4.60;;;;;;;;;;5070861;28;20227;-52
2023/07/09 12:58:58;;;;;;;5.67;4.40;;;;;;;;;;5071049;28;20334;-52
2023/07/09 13:01:25;;;;;;;5.17;4.60;;;;;;;;;;5070918;28;20230;-52
2023/07/09 13:03:55;;;;;;;5.03;4.07;;;;;;;;;;5071132;28;20235;-52
2023/07/09 13:06:26;;;;;;;4.83;4.33;;;;;;;;;;5071070;28;20213;-52
2023/07/09 13:08:55;;;;;;;5.10;4.30;;;;;;;;;;5071032;28;20197;-52
2023/07/09 13:11:21;;;;;;;6.27;4.63;;;;;;;;;;5070912;28;20201;-52
2023/07/09 13:13:54;;;;;;;6.30;4.17;;;;;;;;;;5070953;28;20200;-52
2023/07/09 13:16:21;;;;;;;5.50;4.40;;;;;;;;;;5072353;28;20691;-52
2023/07/09 13:18:47;;;;;;;4.77;4.37;;;;;;;;;;5074952;28;20218;-52
2023/07/09 13:21:16;;;;;;;5.23;4.73;;;;;;;;;;5074561;28;20228;-52
2023/07/09 13:23:42;;;;;;;4.87;4.40;;;;;;;;;;5074830;28;20197;-52
2023/07/09 13:26:08;;;;;;;5.17;4.23;;;;;;;;;;5074669;28;20248;-52
2023/07/09 13:28:35;;;;;;;4.93;4.53;;;;;;;;;;5074518;28;20631;-52
2023/07/09 13:31:01;;;;;;;7.63;5.17;;;;;;;;;;5074532;28;20251;-52
2023/07/09 13:33:29;;;;;;;6.30;4.83;;;;;;;;;;5068900;28;20241;-53
2023/07/09 13:35:55;;;;;;;6.13;4.67;;;;;;;;;;5074169;28;20555;-52
2023/07/09 13:38:22;;;;;;;8.07;4.77;;;;;;;;;;5074071;28;20210;-51
2023/07/09 13:40:50;;;;;;;6.57;4.60;;;;;;;;;;5074257;28;20605;-52
2023/07/09 13:43:17;;;;;;;7.50;4.27;;;;;;;;;;5073594;28;20243;-53
2023/07/09 13:45:43;;;;;;;8.00;4.47;;;;;;;;;;5074204;28;20430;-54
2023/07/09 13:48:12;;;;;;;4.87;4.37;;;;;;;;;;5074021;28;20226;-54
2023/07/09 13:50:43;;;;;;;8.83;4.80;;;;;;;;;;5073866;28;20242;-54
2023/07/09 13:53:13;;;;;;;5.57;4.53;;;;;;;;;;5068485;28;20203;-51
2023/07/09 13:55:39;;;;;;;6.10;4.63;;;;;;;;;;5070654;28;20247;-52
2023/07/09 13:58:05;;;;;;;4.83;4.43;;;;;;;;;;5073535;28;20197;-51
2023/07/09 14:00:31;;;;;;;7.27;4.70;;;;;;;;;;5073384;28;20566;-52
2023/07/09 14:02:57;;;;;;;5.10;4.70;;;;;;;;;;5073551;28;20196;-52
2023/07/09 14:05:23;;;;;;;5.47;4.70;;;;;;;;;;5073130;28;20698;-53
2023/07/09 14:07:51;;;;;;;4.83;4.33;;;;;;;;;;5072995;28;20194;-53
2023/07/09 14:10:17;;;;;;;4.93;4.03;;;;;;;;;;5073315;28;20230;-53
2023/07/09 14:12:44;;;;;;;5.77;4.40;;;;;;;;;;5073244;28;20280;-53
2023/07/09 14:15:13;;;;;;;5.13;4.50;;;;;;;;;;5073240;28;20236;-52
2023/07/09 14:17:39;;;;;;;8.40;4.73;;;;;;;;;;5073076;28;20211;-52
2023/07/09 14:20:06;;;;;;;6.40;4.77;;;;;;;;;;5072904;28;20206;-53
2023/07/09 14:22:34;;;;;;;4.90;4.17;;;;;;;;;;5073015;28;20222;-53
2023/07/09 14:25:02;;;;;;;5.27;4.77;;;;;;;;;;5073269;28;20238;-53
2023/07/09 14:27:28;;;;;;;6.37;4.07;;;;;;;;;;5072452;28;20705;-53
2023/07/09 14:29:54;;;;;;;5.40;4.43;;;;;;;;;;5072985;28;20651;-53
2023/07/09 14:32:31;;;;;;;6.70;4.73;;;;;;;;;;5072638;28;20230;-51
2023/07/09 14:34:57;;;;;;;6.37;4.27;;;;;;;;;;5072799;28;20227;-53
2023/07/09 14:37:23;;;;;;;5.17;4.33;;;;;;;;;;5072981;28;20198;-54
2023/07/09 14:39:49;;;;;;;5.57;4.93;;;;;;;;;;5070847;28;20196;-53
2023/07/09 14:42:16;;;;;;;4.90;4.40;;;;;;;;;;5071258;28;20238;-53
2023/07/09 14:44:42;;;;;;;4.93;4.43;;;;;;;;;;5073146;28;20685;-54